Station Historical Data
Daily Summary for March 15, 2019 Units:  English    Metric   Both
« Previous Day
Next Day »
Daily Weekly Monthly Yearly Custom
  High: Low: Average:
Temperature: TemperatureC °F 5.4 °F 13.9 °F
Dew Point: DewpointC °F 1.5 °F 3.6 °F
Humidity: Humidity % 30 % 53 %
Wind Speed: WindSpeedKMH mph 1.9 mph 17.6 mph
Wind Gust: WindSpeedGustKMH mph - -
Wind:- - West
Pressure: PressurehPa in 1006.9 in -
Precipitation: 0.0 in    
Historical Graphs
 
 
Tabular Data for March 15, 2019
Time Temperature Dew Point Pressure Wind Wind Speed Wind Gust Humidity Rainfall Rate (Hourly) solar Conditions
TemperatureC °F DewpointC °F PressurehPa in Calm     Humidity % HourlyPrecipMM in SolarRadiationWatts/m^2 W/m2 Conditions
00:03 9.0 °F 1.9 °F 1007.2 in West 14.8 mph 9.0 mph 61 % 0.0 in 0.00 W/m2 CLR
00:08 8.8 °F 1.9 °F 1007.2 in WSW 12.9 mph 9.8 mph 62 % 0.0 in 0.00 W/m2 CLR
00:14 8.8 °F 1.9 °F 1007.2 in West 9.7 mph 5.1 mph 62 % 0.0 in 0.00 W/m2 CLR
00:18 8.7 °F 2.0 °F 1007.2 in WSW 14.8 mph 10.8 mph 63 % 0.0 in 0.00 W/m2 CLR
00:23 8.6 °F 1.9 °F 1007.0 in WSW 18.5 mph 11.1 mph 63 % 0.0 in 0.00 W/m2 CLR
00:29 8.5 °F 1.8 °F 1006.9 in WSW 13.0 mph 9.5 mph 63 % 0.0 in 0.00 W/m2 CLR
00:33 8.4 °F 2.0 °F 1006.9 in WSW 14.8 mph 9.8 mph 64 % 0.0 in 0.00 W/m2 CLR
00:38 8.4 °F 1.9 °F 1007.1 in WNW 16.1 mph 12.4 mph 64 % 0.0 in 0.00 W/m2 CLR
00:44 8.3 °F 1.9 °F 1007.1 in WSW 18.5 mph 11.3 mph 64 % 0.0 in 0.00 W/m2 CLR
00:48 8.3 °F 1.9 °F 1007.3 in West 18.5 mph 12.6 mph 64 % 0.0 in 0.00 W/m2 CLR
00:53 8.4 °F 1.7 °F 1007.4 in WSW 18.5 mph 11.4 mph 63 % 0.0 in 0.00 W/m2 CLR
00:59 8.5 °F 1.6 °F 1007.3 in WSW 14.8 mph 10.3 mph 62 % 0.0 in 0.00 W/m2 CLR
01:03 8.5 °F 1.6 °F 1007.5 in WSW 20.4 mph 13.4 mph 62 % 0.0 in 0.00 W/m2 CLR
01:09 8.4 °F 1.8 °F 1007.7 in WSW 14.8 mph 10.9 mph 63 % 0.0 in 0.00 W/m2 CLR
01:14 8.3 °F 1.7 °F 1007.8 in WNW 14.8 mph 10.5 mph 63 % 0.0 in 0.00 W/m2 CLR
01:18 8.3 °F 1.7 °F 1007.8 in WSW 20.4 mph 13.0 mph 63 % 0.0 in 0.00 W/m2 CLR
01:24 8.3 °F 1.9 °F 1007.8 in WNW 18.5 mph 10.3 mph 64 % 0.0 in 0.00 W/m2 CLR
01:29 8.2 °F 1.8 °F 1007.7 in WSW 14.8 mph 10.1 mph 64 % 0.0 in 0.00 W/m2 CLR
01:33 8.2 °F 2.0 °F 1007.7 in West 20.9 mph 15.3 mph 65 % 0.0 in 0.00 W/m2 CLR
01:39 8.2 °F 2.0 °F 1007.6 in WSW 16.7 mph 11.6 mph 65 % 0.0 in 0.00 W/m2 CLR
01:44 8.2 °F 2.0 °F 1007.7 in SW 18.5 mph 11.4 mph 65 % 0.0 in 0.00 W/m2 CLR
01:48 8.2 °F 2.0 °F 1007.6 in WSW 14.8 mph 10.6 mph 65 % 0.0 in 0.00 W/m2 CLR
01:54 8.2 °F 2.0 °F 1007.5 in West 20.9 mph 12.4 mph 65 % 0.0 in 0.00 W/m2 CLR
01:59 8.3 °F 2.1 °F 1007.6 in WNW 20.4 mph 11.3 mph 65 % 0.0 in 0.00 W/m2 CLR
02:02 8.3 °F 2.1 °F 1007.7 in West 20.9 mph 14.5 mph 65 % 0.0 in 0.00 W/m2 CLR
02:08 8.2 °F 2.0 °F 1007.7 in West 14.8 mph 9.2 mph 65 % 0.0 in 0.00 W/m2 CLR
02:13 8.1 °F 2.1 °F 1007.8 in WSW 13.0 mph 10.1 mph 66 % 0.0 in 0.00 W/m2 CLR
02:18 8.0 °F 2.1 °F 1007.7 in WSW 8.0 mph 6.1 mph 66 % 0.0 in 0.00 W/m2 CLR
02:23 7.9 °F 1.9 °F 1007.7 in WNW 6.4 mph 3.1 mph 66 % 0.0 in 0.00 W/m2 CLR
02:28 7.8 °F 1.9 °F 1007.7 in WNW 1.9 mph   66 % 0.0 in 0.00 W/m2 CLR
02:33 7.8 °F 1.8 °F 1007.6 in WNW 1.9 mph 0.6 mph 66 % 0.0 in 0.00 W/m2 CLR
02:38 7.7 °F 1.9 °F 1007.6 in SW 5.6 mph 1.9 mph 67 % 0.0 in 0.00 W/m2 CLR
02:43 7.6 °F 1.8 °F 1007.6 in WSW 9.7 mph 7.4 mph 67 % 0.0 in 0.00 W/m2 CLR
02:49 7.4 °F 1.9 °F 1007.5 in WSW 5.6 mph 3.7 mph 68 % 0.0 in 0.00 W/m2 CLR
02:53 7.3 °F 1.8 °F 1007.5 in WSW 3.7 mph 1.9 mph 68 % 0.0 in 0.00 W/m2 CLR
02:58 7.2 °F 1.7 °F 1007.6 in WSW 3.2 mph 1.3 mph 68 % 0.0 in 0.00 W/m2 CLR
03:04 7.1 °F 1.8 °F 1007.8 in West 8.0 mph 6.8 mph 69 % 0.0 in 0.00 W/m2 CLR
03:08 6.9 °F 1.7 °F 1007.8 in SW 9.7 mph 6.3 mph 69 % 0.0 in 0.00 W/m2 CLR
03:14 6.8 °F 1.7 °F 1007.7 in West 13.0 mph 9.5 mph 70 % 0.0 in 0.00 W/m2 CLR
03:19 6.6 °F 1.7 °F 1007.6 in WSW 9.7 mph 7.1 mph 71 % 0.0 in 0.00 W/m2 CLR
03:23 6.6 °F 1.7 °F 1007.5 in WSW 9.7 mph 7.6 mph 71 % 0.0 in 0.00 W/m2 CLR
03:29 6.4 °F 1.6 °F 1007.6 in WSW 8.0 mph 4.7 mph 71 % 0.0 in 0.00 W/m2 CLR
03:34 6.3 °F 1.7 °F 1007.6 in WSW 11.3 mph 8.0 mph 72 % 0.0 in 0.00 W/m2 CLR
03:38 6.3 °F 1.6 °F 1007.6 in WSW 11.1 mph 6.0 mph 72 % 0.0 in 0.00 W/m2 CLR
03:44 6.3 °F 1.6 °F 1007.7 in West 8.0 mph 5.8 mph 72 % 0.0 in 0.00 W/m2 CLR
03:49 6.3 °F 1.6 °F 1007.6 in WSW 8.0 mph 5.5 mph 72 % 0.0 in 0.00 W/m2 CLR
03:53 6.3 °F 1.7 °F 1007.8 in West 4.8 mph 2.6 mph 72 % 0.0 in 0.00 W/m2 CLR
03:59 6.3 °F 1.7 °F 1007.8 in SW 9.7 mph 8.5 mph 72 % 0.0 in 0.00 W/m2 CLR
04:04 6.2 °F 1.7 °F 1007.8 in WSW 13.0 mph 9.2 mph 73 % 0.0 in 0.00 W/m2 CLR
04:09 6.1 °F 1.6 °F 1007.8 in SW 14.8 mph 9.2 mph 73 % 0.0 in 0.00 W/m2 CLR
04:14 6.0 °F 1.5 °F 1007.8 in SW 14.8 mph 11.1 mph 73 % 0.0 in 0.00 W/m2 CLR
04:19 6.0 °F 1.7 °F 1007.7 in WSW 13.0 mph 8.8 mph 74 % 0.0 in 0.00 W/m2 CLR
04:24 6.0 °F 1.7 °F 1007.6 in WSW 13.0 mph 10.5 mph 74 % 0.0 in 0.00 W/m2 CLR
04:29 5.9 °F 1.7 °F 1007.6 in West 13.0 mph 9.7 mph 74 % 0.0 in 0.00 W/m2 CLR
04:33 5.9 °F 1.7 °F 1007.5 in SW 14.8 mph 8.5 mph 74 % 0.0 in 0.00 W/m2 CLR
04:38 5.9 °F 1.7 °F 1007.6 in SW 11.3 mph 7.4 mph 74 % 0.0 in 0.00 W/m2 CLR
04:43 5.8 °F 1.7 °F 1007.7 in WSW 11.3 mph 7.9 mph 75 % 0.0 in 0.00 W/m2 CLR
04:48 5.8 °F 1.7 °F 1007.6 in SW 11.3 mph 9.3 mph 75 % 0.0 in 0.00 W/m2 CLR
04:53 5.8 °F 1.7 °F 1007.7 in WSW 11.3 mph 9.5 mph 75 % 0.0 in 0.00 W/m2 CLR
04:58 5.9 °F 2.0 °F 1007.7 in WSW 11.3 mph 7.7 mph 76 % 0.0 in 0.00 W/m2 CLR
05:04 5.9 °F 2.1 °F 1007.9 in WSW 18.5 mph 14.0 mph 76 % 0.0 in 0.00 W/m2 CLR
05:08 5.9 °F 1.8 °F 1007.7 in WSW 17.7 mph 12.9 mph 75 % 0.0 in 0.00 W/m2 CLR
05:13 5.9 °F 2.0 °F 1007.9 in WSW 12.9 mph 9.7 mph 76 % 0.0 in 0.00 W/m2 CLR
05:19 5.8 °F 1.9 °F 1008.1 in WSW 18.5 mph 13.4 mph 76 % 0.0 in 0.00 W/m2 CLR
05:23 5.8 °F 1.9 °F 1008.2 in WSW 19.3 mph 15.8 mph 76 % 0.0 in 0.00 W/m2 CLR
05:28 5.8 °F 2.1 °F 1008.2 in WSW 19.3 mph 15.3 mph 77 % 0.0 in 0.00 W/m2 CLR
05:34 5.7 °F 1.9 °F 1008.2 in SSW 13.0 mph 8.2 mph 77 % 0.0 in 0.00 W/m2 CLR
05:38 5.6 °F 1.9 °F 1008.3 in WSW 16.7 mph 12.1 mph 77 % 0.0 in 0.00 W/m2 CLR
05:43 5.6 °F 2.0 °F 1008.2 in SW 16.7 mph 10.8 mph 78 % 0.0 in 0.00 W/m2 CLR
05:49 5.4 °F 1.9 °F 1008.3 in South 16.1 mph 11.9 mph 78 % 0.0 in 0.00 W/m2 CLR
05:53 5.4 °F 2.1 °F 1008.2 in WSW 18.5 mph 9.5 mph 79 % 0.0 in 0.00 W/m2 CLR
05:59 5.4 °F 2.1 °F 1008.4 in WSW 18.5 mph 12.1 mph 79 % 0.0 in 0.00 W/m2 CLR
06:04 5.5 °F 2.2 °F 1008.3 in WSW 13.0 mph 9.3 mph 79 % 0.0 in 0.00 W/m2 CLR
06:08 5.5 °F 2.2 °F 1008.4 in SW 20.9 mph 15.4 mph 79 % 0.0 in 0.00 W/m2 CLR
06:14 5.5 °F 2.2 °F 1008.4 in WSW 16.1 mph 9.7 mph 79 % 0.0 in 0.00 W/m2 CLR
06:18 5.5 °F 2.2 °F 1008.6 in West 14.8 mph 7.9 mph 79 % 0.0 in 0.00 W/m2 CLR
06:23 5.4 °F 2.1 °F 1008.4 in WSW 16.7 mph 8.8 mph 79 % 0.0 in 0.00 W/m2 CLR
06:29 5.5 °F 2.2 °F 1008.4 in WSW 18.5 mph 12.4 mph 79 % 0.0 in 0.00 W/m2 CLR
06:34 5.6 °F 2.2 °F 1008.5 in SW 18.5 mph 11.9 mph 79 % 0.0 in 0.00 W/m2 CLR
06:39 5.6 °F 2.3 °F 1008.4 in SW 19.3 mph 12.7 mph 79 % 0.0 in 5.00 W/m2 CLR
06:44 5.7 °F 2.5 °F 1008.4 in SSW 20.4 mph 12.1 mph 80 % 0.0 in 7.00 W/m2 CLR
06:49 5.8 °F 2.6 °F 1008.4 in SW 20.9 mph 16.3 mph 80 % 0.0 in 9.00 W/m2 SCT
06:54 5.8 °F 2.4 °F 1008.5 in SW 19.3 mph 15.3 mph 79 % 0.0 in 12.00 W/m2 SCT
06:59 6.1 °F 2.7 °F 1008.6 in WSW 20.9 mph 16.3 mph 79 % 0.0 in 18.00 W/m2 SCT
07:04 6.4 °F 2.9 °F 1008.4 in SW 18.5 mph 13.7 mph 78 % 0.0 in 23.00 W/m2 SCT
07:08 6.6 °F 3.1 °F 1008.5 in WSW 17.7 mph 13.5 mph 78 % 0.0 in 25.00 W/m2 SCT
07:13 6.8 °F 3.0 °F 1008.3 in WSW 22.5 mph 15.0 mph 77 % 0.0 in 37.00 W/m2 SCT
07:18 6.9 °F 3.0 °F 1008.2 in WSW 18.5 mph 14.2 mph 76 % 0.0 in 47.00 W/m2 SCT
07:23 7.1 °F 3.1 °F 1008.2 in WSW 17.7 mph 11.9 mph 76 % 0.0 in 58.00 W/m2 SCT
07:28 7.1 °F 3.1 °F 1008.4 in SW 25.7 mph 13.5 mph 76 % 0.0 in 76.00 W/m2 SCT
07:34 7.0 °F 3.1 °F 1008.4 in SW 19.3 mph 13.0 mph 76 % 0.0 in 90.00 W/m2 FEW
07:38 6.9 °F 2.9 °F 1008.4 in WSW 19.3 mph 16.3 mph 76 % 0.0 in 107.00 W/m2 FEW
07:43 7.0 °F 3.1 °F 1008.3 in WSW 18.5 mph 14.0 mph 76 % 0.0 in 125.00 W/m2 FEW
07:49 7.2 °F 3.3 °F 1008.3 in WSW 22.5 mph 16.1 mph 76 % 0.0 in 142.00 W/m2 FEW
07:53 7.4 °F 3.4 °F 1008.4 in SW 20.4 mph 11.9 mph 76 % 0.0 in 146.00 W/m2 FEW
07:58 7.6 °F 3.4 °F 1008.5 in WSW 18.5 mph 12.4 mph 75 % 0.0 in 142.00 W/m2 FEW
08:04 7.8 °F 3.4 °F 1008.6 in WSW 16.7 mph 13.0 mph 74 % 0.0 in 151.00 W/m2 FEW
08:08 7.9 °F 3.6 °F 1008.6 in WSW 19.3 mph 14.3 mph 74 % 0.0 in 174.00 W/m2 FEW
08:13 8.1 °F 3.8 °F 1008.6 in WSW 19.3 mph 13.8 mph 74 % 0.0 in 206.00 W/m2 FEW
08:19 8.4 °F 3.9 °F 1008.7 in SW 18.5 mph 13.5 mph 73 % 0.0 in 221.00 W/m2 CLR
08:23 8.7 °F 3.9 °F 1008.7 in WSW 20.4 mph 14.0 mph 72 % 0.0 in 234.00 W/m2 CLR
08:28 9.0 °F 4.0 °F 1008.6 in WSW 22.5 mph 14.0 mph 71 % 0.0 in 248.00 W/m2 CLR
08:34 9.3 °F 4.1 °F 1008.9 in West 16.7 mph 8.5 mph 70 % 0.0 in 265.00 W/m2 CLR
08:38 9.6 °F 4.3 °F 1008.9 in West 16.7 mph 11.7 mph 70 % 0.0 in 276.00 W/m2 CLR
08:44 10.0 °F 4.6 °F 1009.0 in WNW 18.5 mph 12.4 mph 69 % 0.0 in 288.00 W/m2 CLR
08:49 10.3 °F 4.7 °F 1009.0 in West 18.5 mph 13.2 mph 68 % 0.0 in 299.00 W/m2 CLR
08:53 10.6 °F 4.7 °F 1008.9 in WSW 14.5 mph 11.3 mph 67 % 0.0 in 306.00 W/m2 CLR
08:59 10.8 °F 4.7 °F 1009.1 in WSW 14.8 mph 7.7 mph 66 % 0.0 in 313.00 W/m2 CLR
09:04 11.1 °F 4.8 °F 1009.1 in SW 27.8 mph 14.3 mph 65 % 0.0 in 318.00 W/m2 CLR
09:08 11.3 °F 4.9 °F 1009.2 in WSW 14.8 mph 10.5 mph 65 % 0.0 in 322.00 W/m2 CLR
09:14 11.5 °F 4.9 °F 1009.1 in West 16.7 mph 12.4 mph 64 % 0.0 in 323.00 W/m2 FEW
09:19 11.8 °F 5.0 °F 1009.1 in WNW 13.0 mph 8.2 mph 63 % 0.0 in 323.00 W/m2 FEW
09:24 12.2 °F 5.1 °F 1009.1 in SW 19.3 mph 13.4 mph 62 % 0.0 in 325.00 W/m2 FEW
09:29 12.4 °F 5.1 °F 1009.2 in WSW 18.5 mph 12.6 mph 61 % 0.0 in 327.00 W/m2 FEW
09:34 12.7 °F 5.2 °F 1009.4 in WSW 18.5 mph 13.7 mph 60 % 0.0 in 332.00 W/m2 FEW
09:38 12.9 °F 5.3 °F 1009.5 in West 18.5 mph 10.8 mph 60 % 0.0 in 338.00 W/m2 FEW
09:43 13.1 °F 5.3 °F 1009.4 in West 16.7 mph 10.1 mph 59 % 0.0 in 345.00 W/m2 FEW
09:48 13.3 °F 5.2 °F 1009.5 in WSW 18.5 mph 14.0 mph 58 % 0.0 in 360.00 W/m2 FEW
09:53 13.6 °F 5.5 °F 1009.6 in West 16.1 mph 10.9 mph 58 % 0.0 in 376.00 W/m2 FEW
09:58 13.8 °F 5.4 °F 1009.6 in WSW 9.3 mph 5.3 mph 57 % 0.0 in 394.00 W/m2 FEW
10:03 14.0 °F 5.3 °F 1009.6 in WSW 13.0 mph 9.5 mph 56 % 0.0 in 417.00 W/m2 FEW
10:09 14.3 °F 5.6 °F 1009.6 in WNW 16.7 mph 9.7 mph 56 % 0.0 in 413.00 W/m2 FEW
10:13 14.4 °F 5.2 °F 1009.6 in West 22.5 mph 18.3 mph 54 % 0.0 in 469.00 W/m2 FEW
10:18 14.6 °F 5.1 °F 1009.5 in WSW 18.5 mph 11.4 mph 53 % 0.0 in 492.00 W/m2 CLR
10:24 14.8 °F 5.3 °F 1009.6 in SW 13.0 mph 10.6 mph 53 % 0.0 in 515.00 W/m2 CLR
10:28 15.1 °F 5.3 °F 1009.6 in West 16.7 mph 13.0 mph 52 % 0.0 in 527.00 W/m2 CLR
10:33 15.3 °F 5.5 °F 1009.7 in WNW 9.7 mph 6.8 mph 52 % 0.0 in 545.00 W/m2 CLR
10:39 15.7 °F 5.6 °F 1009.6 in West 14.8 mph 9.8 mph 51 % 0.0 in 559.00 W/m2 CLR
10:43 15.9 °F 5.4 °F 1009.6 in SW 12.9 mph 7.7 mph 50 % 0.0 in 563.00 W/m2 CLR
10:48 16.2 °F 5.2 °F 1009.5 in SW 14.8 mph 7.9 mph 48 % 0.0 in 570.00 W/m2 CLR
10:54 16.4 °F 5.1 °F 1009.5 in SW 20.9 mph 14.2 mph 47 % 0.0 in 578.00 W/m2 CLR
10:59 16.7 °F 5.3 °F 1009.4 in WSW 17.7 mph 9.0 mph 47 % 0.0 in 585.00 W/m2 CLR
11:03 16.8 °F 5.4 °F 1009.5 in West 14.8 mph 6.8 mph 47 % 0.0 in 592.00 W/m2 CLR
11:09 17.1 °F 5.3 °F 1009.3 in WSW 16.7 mph 10.5 mph 46 % 0.0 in 599.00 W/m2 CLR
11:14 17.2 °F 5.1 °F 1009.3 in West 12.9 mph 7.9 mph 45 % 0.0 in 608.00 W/m2 CLR
11:18 17.3 °F 4.9 °F 1009.3 in West 19.3 mph 14.0 mph 44 % 0.0 in 615.00 W/m2 CLR
11:24 17.3 °F 4.9 °F 1009.3 in WSW 20.4 mph 12.2 mph 44 % 0.0 in 621.00 W/m2 CLR
11:29 17.6 °F 5.2 °F 1009.3 in West 14.8 mph 11.6 mph 44 % 0.0 in 629.00 W/m2 CLR
11:34 17.8 °F 5.0 °F 1009.3 in SW 18.5 mph 12.4 mph 43 % 0.0 in 638.00 W/m2 CLR
11:39 17.8 °F 5.1 °F 1009.2 in SW 20.9 mph 14.2 mph 43 % 0.0 in 638.00 W/m2 CLR
11:44 17.9 °F 4.8 °F 1009.2 in WSW 24.1 mph 17.7 mph 42 % 0.0 in 636.00 W/m2 CLR
11:49 17.9 °F 4.5 °F 1009.1 in WSW 24.1 mph 18.3 mph 41 % 0.0 in 633.00 W/m2 CLR
11:54 18.1 °F 5.3 °F 1008.9 in West 17.7 mph 11.4 mph 43 % 0.0 in 647.00 W/m2 CLR
11:59 18.3 °F 4.8 °F 1008.9 in WSW 17.7 mph 11.4 mph 41 % 0.0 in 657.00 W/m2 CLR
12:04 18.4 °F 4.9 °F 1008.8 in SW 19.3 mph 12.9 mph 41 % 0.0 in 617.00 W/m2 CLR
12:08 18.6 °F 5.1 °F 1008.7 in West 18.5 mph 8.8 mph 41 % 0.0 in 615.00 W/m2 CLR
12:13 18.6 °F 5.1 °F 1008.7 in West 16.1 mph 14.3 mph 41 % 0.0 in 642.00 W/m2 CLR
12:18 18.6 °F 4.7 °F 1008.6 in West 19.3 mph 13.7 mph 40 % 0.0 in 668.00 W/m2 CLR
12:23 18.8 °F 4.9 °F 1008.7 in West 22.2 mph 11.9 mph 40 % 0.0 in 633.00 W/m2 CLR
12:28 18.9 °F 4.7 °F 1008.7 in West 17.7 mph 11.7 mph 39 % 0.0 in 601.00 W/m2 CLR
12:33 19.1 °F 4.4 °F 1008.4 in WSW 19.3 mph 14.3 mph 38 % 0.0 in 575.00 W/m2 CLR
12:38 19.3 °F 4.3 °F 1008.4 in WSW 19.3 mph 13.2 mph 37 % 0.0 in 540.00 W/m2 FEW
12:44 19.4 °F 4.3 °F 1008.5 in West 13.0 mph 9.7 mph 37 % 0.0 in 540.00 W/m2 FEW
12:48 19.6 °F 3.7 °F 1008.5 in WSW 19.3 mph 11.1 mph 35 % 0.0 in 548.00 W/m2 FEW
12:53 19.7 °F 3.8 °F 1008.5 in West 18.5 mph 12.2 mph 35 % 0.0 in 599.00 W/m2 FEW
12:59 19.9 °F 3.9 °F 1008.5 in SW 18.5 mph 14.2 mph 35 % 0.0 in 566.00 W/m2 CLR
13:03 19.9 °F 4.0 °F 1008.5 in WNW 22.5 mph 16.4 mph 35 % 0.0 in 671.00 W/m2 CLR
13:08 20.1 °F 4.1 °F 1008.4 in West 18.5 mph 6.6 mph 35 % 0.0 in 671.00 W/m2 CLR
13:14 20.2 °F 4.2 °F 1008.2 in WNW 19.3 mph 13.7 mph 35 % 0.0 in 680.00 W/m2 CLR
13:18 20.2 °F 3.8 °F 1008.4 in NW 22.5 mph 15.6 mph 34 % 0.0 in 693.00 W/m2 CLR
13:23 20.2 °F 3.8 °F 1008.0 in SW 16.7 mph 9.3 mph 34 % 0.0 in 677.00 W/m2 CLR
13:29 20.4 °F 3.6 °F 1008.0 in West 24.1 mph 10.6 mph 33 % 0.0 in 663.00 W/m2 CLR
13:33 20.6 °F 4.1 °F 1008.1 in WSW 13.0 mph 7.9 mph 34 % 0.0 in 656.00 W/m2 CLR
13:38 20.7 °F 3.8 °F 1008.1 in WSW 24.1 mph 17.4 mph 33 % 0.0 in 645.00 W/m2 CLR
13:44 20.7 °F 3.4 °F 1007.9 in WSW 20.4 mph 10.9 mph 32 % 0.0 in 652.00 W/m2 CLR
13:49 20.7 °F 3.8 °F 1007.7 in West 22.5 mph 15.9 mph 33 % 0.0 in 645.00 W/m2 CLR
13:53 20.8 °F 3.9 °F 1007.7 in WSW 18.5 mph 8.2 mph 33 % 0.0 in 640.00 W/m2 CLR
13:59 20.9 °F 4.1 °F 1007.7 in West 19.3 mph 6.9 mph 33 % 0.0 in 628.00 W/m2 CLR
14:04 21.2 °F 2.9 °F 1007.8 in WNW 20.9 mph 15.3 mph 30 % 0.0 in 631.00 W/m2 CLR
14:09 21.1 °F 3.3 °F 1007.5 in WNW 20.9 mph 13.8 mph 31 % 0.0 in 534.00 W/m2 CLR
14:14 21.1 °F 3.3 °F 1007.4 in WSW 24.1 mph 17.7 mph 31 % 0.0 in 601.00 W/m2 CLR
14:19 21.3 °F 3.4 °F 1007.5 in WSW 25.7 mph 14.6 mph 31 % 0.0 in 615.00 W/m2 CLR
14:24 21.4 °F 3.6 °F 1007.5 in WSW 27.8 mph 16.3 mph 31 % 0.0 in 605.00 W/m2 CLR
14:29 21.4 °F 3.6 °F 1007.4 in WNW 25.9 mph 16.3 mph 31 % 0.0 in 587.00 W/m2 CLR
14:34 21.3 °F 3.5 °F 1007.5 in SW 25.9 mph 15.8 mph 31 % 0.0 in 585.00 W/m2 CLR
14:39 21.4 °F 3.6 °F 1007.3 in West 29.0 mph 16.4 mph 31 % 0.0 in 578.00 W/m2 CLR
14:43 21.4 °F 3.6 °F 1007.3 in West 25.9 mph 15.6 mph 31 % 0.0 in 540.00 W/m2 CLR
14:48 21.6 °F 3.7 °F 1007.3 in WSW 25.7 mph 18.5 mph 31 % 0.0 in 522.00 W/m2 CLR
14:53 21.7 °F 3.8 °F 1007.4 in West 20.9 mph 15.4 mph 31 % 0.0 in 529.00 W/m2 CLR
14:58 21.7 °F 3.8 °F 1007.3 in West 25.9 mph 13.7 mph 31 % 0.0 in 529.00 W/m2 CLR
15:03 21.8 °F 3.9 °F 1007.3 in WSW 25.9 mph 15.1 mph 31 % 0.0 in 526.00 W/m2 CLR
15:08 21.9 °F 4.5 °F 1007.3 in SSW 18.5 mph 9.2 mph 32 % 0.0 in 520.00 W/m2 CLR
15:13 22.2 °F 4.2 °F 1007.3 in WSW 24.1 mph 19.1 mph 31 % 0.0 in 504.00 W/m2 CLR
15:18 22.2 °F 4.3 °F 1007.3 in West 20.9 mph 15.6 mph 31 % 0.0 in 494.00 W/m2 CLR
15:23 22.3 °F 4.3 °F 1007.4 in West 27.8 mph 18.2 mph 31 % 0.0 in 476.00 W/m2 CLR
15:28 22.3 °F 4.3 °F 1007.2 in West 31.5 mph 19.8 mph 31 % 0.0 in 473.00 W/m2 CLR
15:34 22.3 °F 4.4 °F 1007.1 in SW 32.2 mph 19.1 mph 31 % 0.0 in 459.00 W/m2 CLR
15:38 22.4 °F 4.9 °F 1007.1 in WNW 18.5 mph 10.6 mph 32 % 0.0 in 448.00 W/m2 CLR
15:43 22.6 °F 4.6 °F 1007.1 in WNW 20.9 mph 15.4 mph 31 % 0.0 in 434.00 W/m2 CLR
15:49 22.7 °F 4.7 °F 1007.2 in West 24.1 mph 13.0 mph 31 % 0.0 in 418.00 W/m2 CLR
15:54 22.7 °F 5.1 °F 1007.2 in WSW 20.4 mph 6.8 mph 32 % 0.0 in 401.00 W/m2 CLR
15:58 22.8 °F 5.2 °F 1007.2 in West 25.9 mph 18.7 mph 32 % 0.0 in 390.00 W/m2 CLR
16:04 22.7 °F 5.2 °F 1007.2 in SW 11.3 mph 9.0 mph 32 % 0.0 in 380.00 W/m2 CLR
16:09 22.8 °F 4.8 °F 1007.1 in WNW 22.5 mph 14.8 mph 31 % 0.0 in 369.00 W/m2 CLR
16:13 22.8 °F 4.8 °F 1007.2 in SW 31.5 mph 18.3 mph 31 % 0.0 in 362.00 W/m2 CLR
16:19 22.6 °F 4.6 °F 1007.1 in SW 25.9 mph 20.0 mph 31 % 0.0 in 345.00 W/m2 CLR
16:24 22.6 °F 4.6 °F 1007.4 in West 22.5 mph 14.0 mph 31 % 0.0 in 325.00 W/m2 CLR
16:28 22.4 °F 4.4 °F 1007.3 in WSW 25.7 mph 21.6 mph 31 % 0.0 in 308.00 W/m2 CLR
16:34 22.4 °F 4.4 °F 1007.4 in SSW 22.2 mph 14.8 mph 31 % 0.0 in 297.00 W/m2 CLR
16:39 22.3 °F 4.4 °F 1007.6 in West 25.7 mph 16.3 mph 31 % 0.0 in 283.00 W/m2 CLR
16:44 22.2 °F 4.7 °F 1007.5 in NW 25.7 mph 16.6 mph 32 % 0.0 in 274.00 W/m2 CLR
16:49 22.1 °F 4.6 °F 1007.6 in West 29.6 mph 18.7 mph 32 % 0.0 in 257.00 W/m2 CLR
16:54 21.9 °F 4.5 °F 1007.6 in West 20.9 mph 10.1 mph 32 % 0.0 in 237.00 W/m2 CLR
16:59 21.9 °F 4.5 °F 1007.5 in WSW 22.5 mph 15.4 mph 32 % 0.0 in 209.00 W/m2 CLR
17:03 21.9 °F 4.5 °F 1007.5 in SW 13.0 mph 9.7 mph 32 % 0.0 in 179.00 W/m2 CLR
17:08 21.8 °F 4.8 °F 1007.5 in WSW 32.2 mph 17.1 mph 33 % 0.0 in 153.00 W/m2 CLR
17:13 21.5 °F 4.1 °F 1007.8 in WSW 24.1 mph 16.3 mph 32 % 0.0 in 155.00 W/m2 CLR
17:18 21.2 °F 3.8 °F 1007.7 in West 18.5 mph 13.4 mph 32 % 0.0 in 130.00 W/m2 CLR
17:23 21.1 °F 3.7 °F 1007.9 in WSW 17.7 mph 11.3 mph 32 % 0.0 in 105.00 W/m2 CLR
17:28 20.8 °F 3.1 °F 1007.9 in West 24.1 mph 18.2 mph 31 % 0.0 in 81.00 W/m2 CLR
17:34 20.7 °F 3.4 °F 1007.8 in WNW 16.7 mph 12.7 mph 32 % 0.0 in 74.00 W/m2 FEW
17:38 20.6 °F 3.3 °F 1007.8 in WSW 22.2 mph 11.7 mph 32 % 0.0 in 63.00 W/m2 FEW
17:43 20.4 °F 3.1 °F 1007.8 in West 19.3 mph 11.4 mph 32 % 0.0 in 51.00 W/m2 FEW
17:49 20.2 °F 3.0 °F 1007.9 in NW 14.8 mph 11.7 mph 32 % 0.0 in 40.00 W/m2 FEW
17:53 20.1 °F 3.3 °F 1008.0 in WNW 18.5 mph 9.8 mph 33 % 0.0 in 33.00 W/m2 FEW
17:58 19.9 °F 3.1 °F 1008.1 in WSW 20.9 mph 14.8 mph 33 % 0.0 in 30.00 W/m2 FEW
18:04 19.7 °F 3.3 °F 1008.1 in WNW 18.5 mph 10.9 mph 34 % 0.0 in 25.00 W/m2 FEW
18:08 19.6 °F 3.3 °F 1008.2 in WNW 22.5 mph 14.5 mph 34 % 0.0 in 21.00 W/m2 FEW
18:13 19.3 °F 3.5 °F 1008.2 in West 20.9 mph 14.3 mph 35 % 0.0 in 18.00 W/m2 FEW
18:19 19.2 °F 3.3 °F 1008.1 in West 20.9 mph 14.6 mph 35 % 0.0 in 11.00 W/m2 FEW
18:23 18.9 °F 3.6 °F 1008.1 in WSW 17.7 mph 12.9 mph 36 % 0.0 in 7.00 W/m2 FEW
18:29 18.8 °F 3.4 °F 1008.2 in WSW 20.9 mph 11.7 mph 36 % 0.0 in 0.00 W/m2 FEW
18:34 18.6 °F 3.6 °F 1008.2 in West 14.8 mph 9.8 mph 37 % 0.0 in 0.00 W/m2 FEW
18:38 18.5 °F 3.5 °F 1008.4 in NW 18.5 mph 9.5 mph 37 % 0.0 in 0.00 W/m2 FEW
18:44 18.4 °F 3.5 °F 1008.4 in West 14.8 mph 10.0 mph 37 % 0.0 in 0.00 W/m2 FEW
18:49 18.4 °F 3.4 °F 1008.5 in NW 18.5 mph 10.8 mph 37 % 0.0 in 0.00 W/m2 FEW
18:54 18.3 °F 3.8 °F 1008.5 in West 20.4 mph 8.0 mph 38 % 0.0 in 0.00 W/m2 FEW
18:59 18.2 °F 3.7 °F 1008.5 in WSW 18.5 mph 10.0 mph 38 % 0.0 in 0.00 W/m2 FEW
19:04 18.1 °F 3.6 °F 1008.6 in WSW 18.5 mph 11.1 mph 38 % 0.0 in 0.00 W/m2 FEW
19:09 18.0 °F 3.4 °F 1008.7 in West 16.1 mph 11.9 mph 38 % 0.0 in 0.00 W/m2 FEW
19:14 17.9 °F 3.4 °F 1008.7 in NW 14.5 mph 8.2 mph 38 % 0.0 in 0.00 W/m2 FEW
19:18 17.9 °F 3.3 °F 1008.7 in West 17.7 mph 11.3 mph 38 % 0.0 in 0.00 W/m2 FEW
19:23 17.8 °F 3.3 °F 1008.8 in West 17.7 mph 9.3 mph 38 % 0.0 in 0.00 W/m2 FEW
19:28 17.7 °F 3.2 °F 1008.8 in WNW 19.3 mph 12.2 mph 38 % 0.0 in 0.00 W/m2 FEW
19:33 17.7 °F 3.6 °F 1008.9 in WSW 16.1 mph 10.9 mph 39 % 0.0 in 0.00 W/m2 FEW
19:38 17.6 °F 3.5 °F 1009.1 in West 16.7 mph 8.8 mph 39 % 0.0 in 0.00 W/m2 FEW
19:43 17.5 °F 3.4 °F 1009.1 in WNW 14.8 mph 8.0 mph 39 % 0.0 in 0.00 W/m2 FEW
19:48 17.4 °F 3.3 °F 1009.1 in NW 16.7 mph 13.0 mph 39 % 0.0 in 0.00 W/m2 FEW
19:53 17.3 °F 3.2 °F 1009.2 in NW 14.5 mph 12.1 mph 39 % 0.0 in 0.00 W/m2 FEW
19:58 17.2 °F 3.5 °F 1009.3 in NW 19.3 mph 11.6 mph 40 % 0.0 in 0.00 W/m2 FEW
20:03 17.0 °F 3.7 °F 1009.3 in NW 17.7 mph 13.0 mph 41 % 0.0 in 0.00 W/m2 FEW
20:09 16.8 °F 3.8 °F 1009.5 in NW 13.0 mph 10.0 mph 42 % 0.0 in 0.00 W/m2 FEW
20:13 16.7 °F 3.7 °F 1009.4 in NNW 14.5 mph 11.4 mph 42 % 0.0 in 0.00 W/m2 FEW
20:18 16.6 °F 3.9 °F 1009.5 in NNW 14.8 mph 11.7 mph 43 % 0.0 in 0.00 W/m2 FEW
20:24 16.4 °F 4.1 °F 1009.5 in NNW 13.0 mph 9.8 mph 44 % 0.0 in 0.00 W/m2 FEW
20:29 16.3 °F 4.0 °F 1009.6 in NW 19.3 mph 12.4 mph 44 % 0.0 in 0.00 W/m2 FEW
20:33 16.3 °F 4.0 °F 1009.6 in NNW 18.5 mph 12.7 mph 44 % 0.0 in 0.00 W/m2 FEW
20:39 16.2 °F 3.9 °F 1009.7 in NW 18.5 mph 13.0 mph 44 % 0.0 in 0.00 W/m2 FEW
20:44 16.2 °F 4.3 °F 1009.6 in NW 18.5 mph 12.9 mph 45 % 0.0 in 0.00 W/m2 FEW
20:48 16.2 °F 4.2 °F 1009.7 in NNW 18.5 mph 10.8 mph 45 % 0.0 in 0.00 W/m2 FEW
20:54 16.1 °F 4.5 °F 1009.8 in WNW 16.7 mph 12.1 mph 46 % 0.0 in 0.00 W/m2 FEW
20:59 16.0 °F 4.4 °F 1009.8 in NNW 19.3 mph 13.8 mph 46 % 0.0 in 0.00 W/m2 FEW
21:03 15.9 °F 4.3 °F 1009.9 in WNW 19.3 mph 13.4 mph 46 % 0.0 in 0.00 W/m2 FEW
21:09 15.8 °F 4.6 °F 1009.8 in NW 18.5 mph 12.6 mph 47 % 0.0 in 0.00 W/m2 FEW
21:14 15.8 °F 4.5 °F 1009.8 in WNW 18.5 mph 12.7 mph 47 % 0.0 in 0.00 W/m2 FEW
21:18 15.7 °F 4.7 °F 1009.9 in West 19.3 mph 10.6 mph 48 % 0.0 in 0.00 W/m2 FEW
21:24 15.7 °F 4.7 °F 1009.8 in NW 19.3 mph 13.4 mph 48 % 0.0 in 0.00 W/m2 FEW
21:29 15.6 °F 4.6 °F 1009.9 in NW 19.3 mph 14.0 mph 48 % 0.0 in 0.00 W/m2 FEW
21:34 15.6 °F 4.9 °F 1010.0 in NW 20.9 mph 14.8 mph 49 % 0.0 in 0.00 W/m2 FEW
21:39 15.6 °F 4.9 °F 1010.1 in West 20.9 mph 12.9 mph 49 % 0.0 in 0.00 W/m2 FEW
21:44 15.6 °F 4.9 °F 1010.1 in WNW 14.8 mph 11.3 mph 49 % 0.0 in 0.00 W/m2 FEW
21:48 15.6 °F 4.9 °F 1010.1 in West 16.7 mph 9.5 mph 49 % 0.0 in 0.00 W/m2 FEW
21:53 15.6 °F 4.9 °F 1010.2 in NW 16.7 mph 10.0 mph 49 % 0.0 in 0.00 W/m2 FEW
21:58 15.6 °F 4.9 °F 1010.3 in NW 22.5 mph 15.8 mph 49 % 0.0 in 0.00 W/m2 FEW
22:04 15.7 °F 5.0 °F 1010.3 in WNW 13.0 mph 7.7 mph 49 % 0.0 in 0.00 W/m2 FEW
22:08 15.6 °F 4.9 °F 1010.4 in WNW 16.1 mph 10.1 mph 49 % 0.0 in 0.00 W/m2 FEW
22:13 15.7 °F 5.0 °F 1010.5 in NW 14.8 mph 8.7 mph 49 % 0.0 in 0.00 W/m2 FEW
22:19 15.6 °F 4.9 °F 1010.5 in WNW 13.0 mph 10.3 mph 49 % 0.0 in 0.00 W/m2 FEW
22:23 15.6 °F 5.2 °F 1010.5 in NW 13.0 mph 9.2 mph 50 % 0.0 in 0.00 W/m2 FEW
22:28 15.5 °F 5.1 °F 1010.5 in WNW 11.3 mph 9.0 mph 50 % 0.0 in 0.00 W/m2 FEW
22:34 15.4 °F 5.3 °F 1010.5 in NW 19.3 mph 12.6 mph 51 % 0.0 in 0.00 W/m2 FEW
22:38 15.4 °F 5.3 °F 1010.5 in West 16.7 mph 10.1 mph 51 % 0.0 in 0.00 W/m2 FEW
22:43 15.3 °F 5.2 °F 1010.5 in WSW 12.9 mph 7.1 mph 51 % 0.0 in 0.00 W/m2 FEW
22:49 15.3 °F 5.5 °F 1010.5 in SW 13.0 mph 8.8 mph 52 % 0.0 in 0.00 W/m2 FEW
22:53 15.2 °F 5.7 °F 1010.6 in WNW 18.5 mph 11.3 mph 53 % 0.0 in 0.00 W/m2 FEW
22:58 15.1 °F 5.6 °F 1010.5 in West 22.2 mph 13.2 mph 53 % 0.0 in 0.00 W/m2 FEW
23:04 14.9 °F 5.7 °F 1010.6 in West 18.5 mph 13.0 mph 54 % 0.0 in 0.00 W/m2 FEW
23:09 14.8 °F 5.9 °F 1010.6 in WSW 19.3 mph 11.9 mph 55 % 0.0 in 0.00 W/m2 FEW
23:13 14.7 °F 5.7 °F 1010.7 in West 18.5 mph 9.5 mph 55 % 0.0 in 0.00 W/m2 FEW
23:19 14.4 °F 5.8 °F 1010.6 in West 18.5 mph 10.3 mph 56 % 0.0 in 0.00 W/m2 FEW
23:24 14.3 °F 5.9 °F 1010.8 in WNW 14.8 mph 8.7 mph 57 % 0.0 in 0.00 W/m2 FEW
23:28 14.2 °F 5.8 °F 1010.7 in West 16.1 mph 9.2 mph 57 % 0.0 in 0.00 W/m2 FEW
23:34 14.1 °F 5.9 °F 1010.8 in West 13.0 mph 8.2 mph 58 % 0.0 in 0.00 W/m2 FEW
23:39 14.0 °F 5.8 °F 1010.9 in WNW 16.7 mph 9.0 mph 58 % 0.0 in 0.00 W/m2 FEW
23:43 13.9 °F 6.1 °F 1010.7 in WSW 14.8 mph 9.0 mph 59 % 0.0 in 0.00 W/m2 FEW
23:49 13.9 °F 6.0 °F 1010.8 in West 16.7 mph 7.2 mph 59 % 0.0 in 0.00 W/m2 FEW
23:54 13.8 °F 6.2 °F 1010.9 in West 19.3 mph 13.2 mph 60 % 0.0 in 0.00 W/m2 FEW
23:58 13.8 °F 6.2 °F 1010.9 in West 14.8 mph 9.8 mph 60 % 0.0 in 0.00 W/m2 FEW
Juneau County Weather
Compliments of Weather Underground - 3.5 mb